IDBO2: Little River, Idabel, OK

Data processed at Fri Mar 09 2018 23:32


All information presented herein is the property of the government of the United States of America and may be revised or deleted at any time without prior notice.
Dissemination of this information without the expressed written consent of the Public Affairs Office, Tulsa District U.S. Army Corps of Engineers is strictly prohibited.
These data are gathered electronically and, as presented, have not undergone any form of quality control. These data are not guaranteed to be valid or correct.
Go to home page.
Go to station list.

Upstream stations:

Downstream station:
Previous Day
Next Day
Current Day
    
SHEF ID:       IDBO2     Little River blw Lukfata Creek
STATION TYPE:  

               PRECIP     STAGE  RIV-FLOW  BAT-LOAD
                   in        ft       cfs      volt
              Ccp-Rev   Ccp-Rev   Ccp-Rev   Ccp-Rev
(US/Central)
03/07 00:00      ----     15.53      4661     12.42
03/07 01:00      ----     15.70      4759     12.42
03/07 02:00      ----     15.88      4863     12.36
03/07 03:00      ----     16.06      4967     12.36
03/07 04:00      ----     16.24      5072     12.36
03/07 05:00      ----     16.41      5172     12.36
03/07 06:00      ----     16.59      5278     12.36
03/07 07:00      ----     16.75      5372     12.36
03/07 08:00      ----     16.92      5473     12.30
03/07 09:00      ----     17.09      5574     12.30
03/07 10:00      ----     17.24      5664     12.30
03/07 11:00      ----     17.40      5759     12.30
03/07 12:00      ----     17.54      5844     12.42
03/07 13:00      ----     17.68      5928     12.48
03/07 14:00      ----     17.83      6019     12.54
03/07 15:00      ----     17.97      6104     12.60
03/07 16:00      ----     18.09      6177     12.60
03/07 17:00      ----     18.21      6250     12.54
03/07 18:00      ----     18.32      6318     12.54
03/07 19:00      ----     18.43      6385     12.48
03/07 20:00      ----     18.54      6453     12.42
03/07 21:00      ----     18.64      6515     12.42
03/07 22:00      ----     18.74      6576     12.42
03/07 23:00      ----     18.82      6626     12.36